sensor_id;sensor_type;location;lat;lon;timestamp;temperature;humidity
11989;DHT22;6054;50.966;7.094;2023-04-25T00:00:54;16.60;44.00
11989;DHT22;6054;50.966;7.094;2023-04-25T00:03:21;16.60;44.00
11989;DHT22;6054;50.966;7.094;2023-04-25T00:05:50;16.60;44.10
11989;DHT22;6054;50.966;7.094;2023-04-25T00:08:17;16.60;44.20
11989;DHT22;6054;50.966;7.094;2023-04-25T00:10:45;16.60;44.20
11989;DHT22;6054;50.966;7.094;2023-04-25T00:13:12;16.50;44.20
11989;DHT22;6054;50.966;7.094;2023-04-25T00:15:38;16.60;44.30
11989;DHT22;6054;50.966;7.094;2023-04-25T00:18:07;16.80;44.60
11989;DHT22;6054;50.966;7.094;2023-04-25T00:20:35;16.50;44.30
11989;DHT22;6054;50.966;7.094;2023-04-25T00:23:02;16.50;44.40
11989;DHT22;6054;50.966;7.094;2023-04-25T00:25:29;16.80;44.60
11989;DHT22;6054;50.966;7.094;2023-04-25T00:27:57;16.40;44.40
11989;DHT22;6054;50.966;7.094;2023-04-25T00:30:23;16.40;44.20
11989;DHT22;6054;50.966;7.094;2023-04-25T00:32:50;16.40;44.50
11989;DHT22;6054;50.966;7.094;2023-04-25T00:35:17;16.30;44.40
11989;DHT22;6054;50.966;7.094;2023-04-25T00:37:44;16.30;44.60
11989;DHT22;6054;50.966;7.094;2023-04-25T00:40:11;16.30;44.80
11989;DHT22;6054;50.966;7.094;2023-04-25T00:42:38;16.30;44.70
11989;DHT22;6054;50.966;7.094;2023-04-25T00:45:08;16.30;44.90
11989;DHT22;6054;50.966;7.094;2023-04-25T00:47:38;16.20;45.00
11989;DHT22;6054;50.966;7.094;2023-04-25T00:50:07;16.50;45.40
11989;DHT22;6054;50.966;7.094;2023-04-25T00:52:34;16.20;45.10
11989;DHT22;6054;50.966;7.094;2023-04-25T00:55:01;16.10;44.80
11989;DHT22;6054;50.966;7.094;2023-04-25T00:57:28;16.10;44.80
11989;DHT22;6054;50.966;7.094;2023-04-25T00:59:55;16.10;45.10
11989;DHT22;6054;50.966;7.094;2023-04-25T01:02:23;16.10;45.10
11989;DHT22;6054;50.966;7.094;2023-04-25T01:04:51;16.00;44.70
11989;DHT22;6054;50.966;7.094;2023-04-25T01:07:18;16.00;44.90
11989;DHT22;6054;50.966;7.094;2023-04-25T01:09:45;16.00;45.10
11989;DHT22;6054;50.966;7.094;2023-04-25T01:12:12;15.90;44.80
11989;DHT22;6054;50.966;7.094;2023-04-25T01:14:40;15.90;44.70
11989;DHT22;6054;50.966;7.094;2023-04-25T01:17:06;15.90;45.00
11989;DHT22;6054;50.966;7.094;2023-04-25T01:19:35;15.90;45.40
11989;DHT22;6054;50.966;7.094;2023-04-25T01:22:04;15.90;45.20
11989;DHT22;6054;50.966;7.094;2023-04-25T01:24:31;15.80;45.60
11989;DHT22;6054;50.966;7.094;2023-04-25T01:26:59;15.80;45.90
11989;DHT22;6054;50.966;7.094;2023-04-25T01:29:28;15.80;46.00
11989;DHT22;6054;50.966;7.094;2023-04-25T01:31:55;15.80;45.90
11989;DHT22;6054;50.966;7.094;2023-04-25T01:34:23;15.80;45.80
11989;DHT22;6054;50.966;7.094;2023-04-25T01:36:51;15.80;45.90
11989;DHT22;6054;50.966;7.094;2023-04-25T01:39:19;15.80;46.00
11989;DHT22;6054;50.966;7.094;2023-04-25T01:41:47;15.80;45.90
11989;DHT22;6054;50.966;7.094;2023-04-25T01:44:14;15.80;45.90
11989;DHT22;6054;50.966;7.094;2023-04-25T01:46:41;15.80;46.50
11989;DHT22;6054;50.966;7.094;2023-04-25T01:49:08;15.80;45.30
11989;DHT22;6054;50.966;7.094;2023-04-25T01:51:35;15.80;45.30
11989;DHT22;6054;50.966;7.094;2023-04-25T01:54:02;15.90;45.70
11989;DHT22;6054;50.966;7.094;2023-04-25T01:56:32;15.90;45.60
11989;DHT22;6054;50.966;7.094;2023-04-25T01:58:59;15.70;45.30
11989;DHT22;6054;50.966;7.094;2023-04-25T02:01:26;15.70;45.50
11989;DHT22;6054;50.966;7.094;2023-04-25T02:03:52;15.70;45.30
11989;DHT22;6054;50.966;7.094;2023-04-25T02:06:19;15.70;45.30
11989;DHT22;6054;50.966;7.094;2023-04-25T02:08:46;15.70;45.50
11989;DHT22;6054;50.966;7.094;2023-04-25T02:11:13;15.70;45.30
11989;DHT22;6054;50.966;7.094;2023-04-25T02:13:41;15.70;45.40
11989;DHT22;6054;50.966;7.094;2023-04-25T02:16:08;15.60;45.30
11989;DHT22;6054;50.966;7.094;2023-04-25T02:18:34;15.60;45.40
11989;DHT22;6054;50.966;7.094;2023-04-25T02:21:03;15.60;45.30
11989;DHT22;6054;50.966;7.094;2023-04-25T02:23:29;15.60;45.30
11989;DHT22;6054;50.966;7.094;2023-04-25T02:25:56;15.60;45.30
11989;DHT22;6054;50.966;7.094;2023-04-25T02:28:23;15.50;45.30
11989;DHT22;6054;50.966;7.094;2023-04-25T02:30:52;15.50;45.40
11989;DHT22;6054;50.966;7.094;2023-04-25T02:33:19;15.90;45.70
11989;DHT22;6054;50.966;7.094;2023-04-25T02:35:46;15.50;45.50
11989;DHT22;6054;50.966;7.094;2023-04-25T02:38:13;15.50;45.70
11989;DHT22;6054;50.966;7.094;2023-04-25T02:40:40;15.50;45.80
11989;DHT22;6054;50.966;7.094;2023-04-25T02:43:07;15.50;45.90
11989;DHT22;6054;50.966;7.094;2023-04-25T02:45:33;15.50;45.90
11989;DHT22;6054;50.966;7.094;2023-04-25T02:48:02;15.60;45.90
11989;DHT22;6054;50.966;7.094;2023-04-25T02:50:29;15.50;45.70
11989;DHT22;6054;50.966;7.094;2023-04-25T02:52:55;15.50;45.70
11989;DHT22;6054;50.966;7.094;2023-04-25T02:55:22;15.50;45.80
11989;DHT22;6054;50.966;7.094;2023-04-25T02:57:49;15.50;45.80
11989;DHT22;6054;50.966;7.094;2023-04-25T03:00:16;15.50;46.10
11989;DHT22;6054;50.966;7.094;2023-04-25T03:02:42;15.50;46.10
11989;DHT22;6054;50.966;7.094;2023-04-25T03:05:10;15.50;46.30
11989;DHT22;6054;50.966;7.094;2023-04-25T03:07:37;15.50;46.30
11989;DHT22;6054;50.966;7.094;2023-04-25T03:10:06;15.50;46.70
11989;DHT22;6054;50.966;7.094;2023-04-25T03:12:33;15.50;47.00
11989;DHT22;6054;50.966;7.094;2023-04-25T03:14:59;15.50;46.80
11989;DHT22;6054;50.966;7.094;2023-04-25T03:17:26;15.50;46.90
11989;DHT22;6054;50.966;7.094;2023-04-25T03:19:53;15.50;46.90
11989;DHT22;6054;50.966;7.094;2023-04-25T03:22:22;15.50;46.80
11989;DHT22;6054;50.966;7.094;2023-04-25T03:24:49;15.50;46.70
11989;DHT22;6054;50.966;7.094;2023-04-25T03:27:16;15.40;46.70
11989;DHT22;6054;50.966;7.094;2023-04-25T03:29:43;15.40;46.50
11989;DHT22;6054;50.966;7.094;2023-04-25T03:32:09;15.40;46.60
11989;DHT22;6054;50.966;7.094;2023-04-25T03:34:36;15.40;46.80
11989;DHT22;6054;50.966;7.094;2023-04-25T03:37:03;15.40;46.80
11989;DHT22;6054;50.966;7.094;2023-04-25T03:39:31;15.40;47.00
11989;DHT22;6054;50.966;7.094;2023-04-25T03:41:58;15.40;47.20
11989;DHT22;6054;50.966;7.094;2023-04-25T03:44:24;15.40;47.20
11989;DHT22;6054;50.966;7.094;2023-04-25T04:02:17;15.40;47.90
11989;DHT22;6054;50.966;7.094;2023-04-25T04:04:44;15.30;47.80
11989;DHT22;6054;50.966;7.094;2023-04-25T04:07:11;15.30;47.00
11989;DHT22;6054;50.966;7.094;2023-04-25T04:09:38;15.30;47.00
11989;DHT22;6054;50.966;7.094;2023-04-25T04:12:05;15.30;46.70
11989;DHT22;6054;50.966;7.094;2023-04-25T04:14:32;15.30;45.60
11989;DHT22;6054;50.966;7.094;2023-04-25T04:16:59;15.60;45.40
11989;DHT22;6054;50.966;7.094;2023-04-25T04:19:27;15.30;45.90
11989;DHT22;6054;50.966;7.094;2023-04-25T04:21:54;15.30;46.20
11989;DHT22;6054;50.966;7.094;2023-04-25T04:24:21;15.20;46.00
11989;DHT22;6054;50.966;7.094;2023-04-25T04:26:47;15.20;46.30
11989;DHT22;6054;50.966;7.094;2023-04-25T04:29:14;15.20;46.30
11989;DHT22;6054;50.966;7.094;2023-04-25T04:31:47;15.20;46.20
11989;DHT22;6054;50.966;7.094;2023-04-25T04:34:14;15.20;47.10
11989;DHT22;6054;50.966;7.094;2023-04-25T04:36:43;15.10;46.10
11989;DHT22;6054;50.966;7.094;2023-04-25T04:39:11;15.10;46.30
11989;DHT22;6054;50.966;7.094;2023-04-25T04:41:38;15.10;46.50
11989;DHT22;6054;50.966;7.094;2023-04-25T04:44:06;15.10;46.00
11989;DHT22;6054;50.966;7.094;2023-04-25T04:46:34;15.10;47.00
11989;DHT22;6054;50.966;7.094;2023-04-25T04:49:04;15.10;46.50
11989;DHT22;6054;50.966;7.094;2023-04-25T04:51:31;15.10;47.60
11989;DHT22;6054;50.966;7.094;2023-04-25T04:53:59;15.10;45.30
11989;DHT22;6054;50.966;7.094;2023-04-25T04:56:28;15.30;45.50
11989;DHT22;6054;50.966;7.094;2023-04-25T04:58:55;15.20;46.80
11989;DHT22;6054;50.966;7.094;2023-04-25T05:01:21;15.20;46.70
11989;DHT22;6054;50.966;7.094;2023-04-25T05:03:48;15.20;47.20
11989;DHT22;6054;50.966;7.094;2023-04-25T05:06:15;15.20;47.20
11989;DHT22;6054;50.966;7.094;2023-04-25T05:08:42;15.20;47.60
11989;DHT22;6054;50.966;7.094;2023-04-25T05:11:11;15.20;46.60
11989;DHT22;6054;50.966;7.094;2023-04-25T05:13:37;15.20;46.60
11989;DHT22;6054;50.966;7.094;2023-04-25T05:16:04;15.30;46.70
11989;DHT22;6054;50.966;7.094;2023-04-25T05:18:31;15.20;46.80
11989;DHT22;6054;50.966;7.094;2023-04-25T05:20:58;15.30;47.00
11989;DHT22;6054;50.966;7.094;2023-04-25T05:23:25;15.20;47.00
11989;DHT22;6054;50.966;7.094;2023-04-25T05:25:53;15.20;47.00
11989;DHT22;6054;50.966;7.094;2023-04-25T05:28:21;15.20;47.00
11989;DHT22;6054;50.966;7.094;2023-04-25T05:30:48;15.20;47.00
11989;DHT22;6054;50.966;7.094;2023-04-25T05:33:15;15.20;47.70
11989;DHT22;6054;50.966;7.094;2023-04-25T05:35:42;15.20;47.10
11989;DHT22;6054;50.966;7.094;2023-04-25T05:38:09;15.20;46.80
11989;DHT22;6054;50.966;7.094;2023-04-25T05:40:36;15.20;46.40
11989;DHT22;6054;50.966;7.094;2023-04-25T05:43:02;15.20;47.30
11989;DHT22;6054;50.966;7.094;2023-04-25T05:45:31;15.20;47.00
11989;DHT22;6054;50.966;7.094;2023-04-25T05:47:58;15.20;46.60
11989;DHT22;6054;50.966;7.094;2023-04-25T05:50:24;15.20;46.40
11989;DHT22;6054;50.966;7.094;2023-04-25T05:52:51;15.20;46.60
11989;DHT22;6054;50.966;7.094;2023-04-25T05:55:18;15.20;46.70
11989;DHT22;6054;50.966;7.094;2023-04-25T05:57:45;15.20;45.90
11989;DHT22;6054;50.966;7.094;2023-04-25T06:00:13;15.40;46.30
11989;DHT22;6054;50.966;7.094;2023-04-25T06:02:42;15.20;47.40
11989;DHT22;6054;50.966;7.094;2023-04-25T06:05:09;15.10;46.80
11989;DHT22;6054;50.966;7.094;2023-04-25T06:07:36;15.20;46.60
11989;DHT22;6054;50.966;7.094;2023-04-25T06:10:03;15.10;46.50
11989;DHT22;6054;50.966;7.094;2023-04-25T06:12:31;15.20;47.60
11989;DHT22;6054;50.966;7.094;2023-04-25T06:14:58;15.40;47.30
11989;DHT22;6054;50.966;7.094;2023-04-25T06:17:25;15.20;46.90
11989;DHT22;6054;50.966;7.094;2023-04-25T06:19:53;15.30;47.00
11989;DHT22;6054;50.966;7.094;2023-04-25T06:22:20;15.30;46.60
11989;DHT22;6054;50.966;7.094;2023-04-25T06:24:47;15.30;46.00
11989;DHT22;6054;50.966;7.094;2023-04-25T06:27:13;15.50;45.80
11989;DHT22;6054;50.966;7.094;2023-04-25T06:29:40;15.40;46.00
11989;DHT22;6054;50.966;7.094;2023-04-25T06:32:07;15.40;45.60
11989;DHT22;6054;50.966;7.094;2023-04-25T06:34:34;15.40;47.40
11989;DHT22;6054;50.966;7.094;2023-04-25T06:37:02;15.40;46.20
11989;DHT22;6054;50.966;7.094;2023-04-25T06:39:30;15.50;46.10
11989;DHT22;6054;50.966;7.094;2023-04-25T06:41:56;15.50;46.00
11989;DHT22;6054;50.966;7.094;2023-04-25T06:44:23;15.60;45.70
11989;DHT22;6054;50.966;7.094;2023-04-25T06:46:51;15.60;45.30
11989;DHT22;6054;50.966;7.094;2023-04-25T06:49:18;15.90;45.70
11989;DHT22;6054;50.966;7.094;2023-04-25T06:51:45;15.70;45.30
11989;DHT22;6054;50.966;7.094;2023-04-25T06:54:13;15.70;45.50
11989;DHT22;6054;50.966;7.094;2023-04-25T06:56:40;16.00;44.40
11989;DHT22;6054;50.966;7.094;2023-04-25T06:59:07;15.80;45.30
11989;DHT22;6054;50.966;7.094;2023-04-25T07:01:34;15.90;44.50
11989;DHT22;6054;50.966;7.094;2023-04-25T07:04:01;16.00;45.40
11989;DHT22;6054;50.966;7.094;2023-04-25T07:06:28;16.00;44.70
11989;DHT22;6054;50.966;7.094;2023-04-25T07:08:55;16.10;44.30
11989;DHT22;6054;50.966;7.094;2023-04-25T07:11:23;16.10;43.30
11989;DHT22;6054;50.966;7.094;2023-04-25T07:13:50;16.10;42.20
11989;DHT22;6054;50.966;7.094;2023-04-25T07:16:17;16.30;43.50
11989;DHT22;6054;50.966;7.094;2023-04-25T07:18:44;16.30;43.70
11989;DHT22;6054;50.966;7.094;2023-04-25T07:21:11;16.20;42.90
11989;DHT22;6054;50.966;7.094;2023-04-25T07:23:38;16.30;41.90
11989;DHT22;6054;50.966;7.094;2023-04-25T07:26:06;16.30;41.90
11989;DHT22;6054;50.966;7.094;2023-04-25T07:28:34;16.30;42.20
11989;DHT22;6054;50.966;7.094;2023-04-25T07:31:01;16.30;41.50
11989;DHT22;6054;50.966;7.094;2023-04-25T07:33:28;16.20;41.80
11989;DHT22;6054;50.966;7.094;2023-04-25T07:35:55;16.20;42.50
11989;DHT22;6054;50.966;7.094;2023-04-25T07:38:22;16.20;42.10
11989;DHT22;6054;50.966;7.094;2023-04-25T07:40:49;16.20;41.60
11989;DHT22;6054;50.966;7.094;2023-04-25T07:43:16;16.30;42.10
11989;DHT22;6054;50.966;7.094;2023-04-25T07:45:45;16.20;41.50
11989;DHT22;6054;50.966;7.094;2023-04-25T07:48:15;16.30;42.10
11989;DHT22;6054;50.966;7.094;2023-04-25T07:50:43;16.40;41.50
11989;DHT22;6054;50.966;7.094;2023-04-25T07:53:09;16.50;39.30
11989;DHT22;6054;50.966;7.094;2023-04-25T07:55:36;16.50;40.20
11989;DHT22;6054;50.966;7.094;2023-04-25T07:58:05;16.50;41.00
11989;DHT22;6054;50.966;7.094;2023-04-25T08:00:32;16.40;40.50
11989;DHT22;6054;50.966;7.094;2023-04-25T08:03:00;16.50;40.40
11989;DHT22;6054;50.966;7.094;2023-04-25T08:05:28;16.50;39.00
11989;DHT22;6054;50.966;7.094;2023-04-25T08:07:55;16.40;40.30
11989;DHT22;6054;50.966;7.094;2023-04-25T08:10:22;16.40;39.50
11989;DHT22;6054;50.966;7.094;2023-04-25T08:12:49;16.40;39.80
11989;DHT22;6054;50.966;7.094;2023-04-25T08:15:16;16.40;41.00
11989;DHT22;6054;50.966;7.094;2023-04-25T08:17:42;16.50;41.00
11989;DHT22;6054;50.966;7.094;2023-04-25T08:20:12;16.50;41.60
11989;DHT22;6054;50.966;7.094;2023-04-25T08:22:39;16.60;41.10
11989;DHT22;6054;50.966;7.094;2023-04-25T08:25:06;16.70;39.60
11989;DHT22;6054;50.966;7.094;2023-04-25T08:27:33;16.70;39.50
11989;DHT22;6054;50.966;7.094;2023-04-25T08:30:00;16.70;38.70
11989;DHT22;6054;50.966;7.094;2023-04-25T08:32:28;16.70;38.60
11989;DHT22;6054;50.966;7.094;2023-04-25T08:34:55;16.80;37.40
11989;DHT22;6054;50.966;7.094;2023-04-25T08:37:23;16.80;36.90
11989;DHT22;6054;50.966;7.094;2023-04-25T08:39:51;16.80;37.00
11989;DHT22;6054;50.966;7.094;2023-04-25T08:42:19;16.80;37.00
11989;DHT22;6054;50.966;7.094;2023-04-25T08:44:48;16.80;38.30
11989;DHT22;6054;50.966;7.094;2023-04-25T08:47:15;17.00;38.80
11989;DHT22;6054;50.966;7.094;2023-04-25T08:49:45;16.90;38.50
11989;DHT22;6054;50.966;7.094;2023-04-25T08:52:13;16.80;38.10
11989;DHT22;6054;50.966;7.094;2023-04-25T08:54:43;16.80;38.60
11989;DHT22;6054;50.966;7.094;2023-04-25T08:57:14;16.80;38.70
11989;DHT22;6054;50.966;7.094;2023-04-25T08:59:41;16.70;37.30
11989;DHT22;6054;50.966;7.094;2023-04-25T09:02:11;16.60;37.90
11989;DHT22;6054;50.966;7.094;2023-04-25T09:04:40;16.60;38.40
11989;DHT22;6054;50.966;7.094;2023-04-25T09:07:07;16.60;38.80
11989;DHT22;6054;50.966;7.094;2023-04-25T09:09:34;16.60;38.00
11989;DHT22;6054;50.966;7.094;2023-04-25T09:12:03;16.80;37.60
11989;DHT22;6054;50.966;7.094;2023-04-25T09:14:29;16.60;38.00
11989;DHT22;6054;50.966;7.094;2023-04-25T09:17:00;16.90;38.00
11989;DHT22;6054;50.966;7.094;2023-04-25T09:19:29;16.60;38.60
11989;DHT22;6054;50.966;7.094;2023-04-25T09:21:57;16.60;38.80
11989;DHT22;6054;50.966;7.094;2023-04-25T09:24:34;16.60;39.10
11989;DHT22;6054;50.966;7.094;2023-04-25T09:27:07;16.70;39.60
11989;DHT22;6054;50.966;7.094;2023-04-25T09:29:37;16.70;39.50
11989;DHT22;6054;50.966;7.094;2023-04-25T09:32:16;16.80;39.60
11989;DHT22;6054;50.966;7.094;2023-04-25T09:34:45;16.90;39.70
11989;DHT22;6054;50.966;7.094;2023-04-25T09:37:17;16.90;38.40
11989;DHT22;6054;50.966;7.094;2023-04-25T09:39:45;17.00;38.30
11989;DHT22;6054;50.966;7.094;2023-04-25T09:42:14;17.00;37.40
11989;DHT22;6054;50.966;7.094;2023-04-25T09:44:44;17.10;36.10
11989;DHT22;6054;50.966;7.094;2023-04-25T09:47:12;17.30;36.20
11989;DHT22;6054;50.966;7.094;2023-04-25T09:49:41;17.30;36.60
11989;DHT22;6054;50.966;7.094;2023-04-25T09:52:10;17.20;36.60
11989;DHT22;6054;50.966;7.094;2023-04-25T09:54:39;17.20;36.40
11989;DHT22;6054;50.966;7.094;2023-04-25T09:57:10;17.20;36.10
11989;DHT22;6054;50.966;7.094;2023-04-25T09:59:43;17.20;36.50
11989;DHT22;6054;50.966;7.094;2023-04-25T10:02:11;17.20;36.30
11989;DHT22;6054;50.966;7.094;2023-04-25T10:04:38;17.30;36.90
11989;DHT22;6054;50.966;7.094;2023-04-25T10:07:06;17.40;37.10
11989;DHT22;6054;50.966;7.094;2023-04-25T10:09:33;17.40;37.30
11989;DHT22;6054;50.966;7.094;2023-04-25T10:12:03;17.50;37.10
11989;DHT22;6054;50.966;7.094;2023-04-25T10:14:30;17.50;36.60
11989;DHT22;6054;50.966;7.094;2023-04-25T10:16:59;17.50;36.40
11989;DHT22;6054;50.966;7.094;2023-04-25T10:19:27;17.60;36.20
11989;DHT22;6054;50.966;7.094;2023-04-25T10:22:02;17.60;35.70
11989;DHT22;6054;50.966;7.094;2023-04-25T10:24:30;17.60;35.50
11989;DHT22;6054;50.966;7.094;2023-04-25T10:26:57;17.70;35.40
11989;DHT22;6054;50.966;7.094;2023-04-25T10:29:25;17.60;35.50
11989;DHT22;6054;50.966;7.094;2023-04-25T10:31:52;17.60;35.70
11989;DHT22;6054;50.966;7.094;2023-04-25T10:34:24;17.60;35.00
11989;DHT22;6054;50.966;7.094;2023-04-25T10:36:52;17.60;35.10
11989;DHT22;6054;50.966;7.094;2023-04-25T10:39:23;17.70;34.80
11989;DHT22;6054;50.966;7.094;2023-04-25T10:41:55;17.70;34.20
11989;DHT22;6054;50.966;7.094;2023-04-25T10:44:22;17.70;34.40
11989;DHT22;6054;50.966;7.094;2023-04-25T10:46:49;17.90;34.30
11989;DHT22;6054;50.966;7.094;2023-04-25T10:49:30;17.90;34.40
11989;DHT22;6054;50.966;7.094;2023-04-25T10:52:18;18.00;34.30
11989;DHT22;6054;50.966;7.094;2023-04-25T10:54:48;18.10;34.00
11989;DHT22;6054;50.966;7.094;2023-04-25T10:57:31;18.10;33.20
11989;DHT22;6054;50.966;7.094;2023-04-25T11:00:00;18.10;33.00
11989;DHT22;6054;50.966;7.094;2023-04-25T11:02:30;18.10;33.10
11989;DHT22;6054;50.966;7.094;2023-04-25T11:04:59;18.00;33.00
11989;DHT22;6054;50.966;7.094;2023-04-25T11:07:32;18.20;33.50
11989;DHT22;6054;50.966;7.094;2023-04-25T11:10:02;17.90;33.40
11989;DHT22;6054;50.966;7.094;2023-04-25T11:12:30;17.80;33.60
11989;DHT22;6054;50.966;7.094;2023-04-25T11:15:02;17.80;33.40
11989;DHT22;6054;50.966;7.094;2023-04-25T11:17:30;17.80;33.60
11989;DHT22;6054;50.966;7.094;2023-04-25T11:19:59;17.80;33.00
11989;DHT22;6054;50.966;7.094;2023-04-25T11:22:27;17.80;32.90
11989;DHT22;6054;50.966;7.094;2023-04-25T11:24:54;17.80;33.30
11989;DHT22;6054;50.966;7.094;2023-04-25T11:27:21;17.90;33.10
11989;DHT22;6054;50.966;7.094;2023-04-25T11:29:50;18.00;33.00
11989;DHT22;6054;50.966;7.094;2023-04-25T11:32:19;18.10;31.70
11989;DHT22;6054;50.966;7.094;2023-04-25T11:34:46;18.20;32.70
11989;DHT22;6054;50.966;7.094;2023-04-25T11:37:15;18.20;32.30
11989;DHT22;6054;50.966;7.094;2023-04-25T11:39:45;18.30;31.80
11989;DHT22;6054;50.966;7.094;2023-04-25T11:42:12;18.40;32.20
11989;DHT22;6054;50.966;7.094;2023-04-25T11:44:39;18.70;31.80
11989;DHT22;6054;50.966;7.094;2023-04-25T11:47:06;18.50;31.50
11989;DHT22;6054;50.966;7.094;2023-04-25T11:49:33;18.50;31.30
11989;DHT22;6054;50.966;7.094;2023-04-25T11:52:01;18.60;31.50
11989;DHT22;6054;50.966;7.094;2023-04-25T11:54:29;18.60;30.70
11989;DHT22;6054;50.966;7.094;2023-04-25T11:56:56;18.30;30.20
11989;DHT22;6054;50.966;7.094;2023-04-25T11:59:24;18.60;30.90
11989;DHT22;6054;50.966;7.094;2023-04-25T12:01:51;18.70;31.10
11989;DHT22;6054;50.966;7.094;2023-04-25T12:04:19;18.80;31.00
11989;DHT22;6054;50.966;7.094;2023-04-25T12:06:47;18.80;31.10
11989;DHT22;6054;50.966;7.094;2023-04-25T12:09:15;18.90;31.20
11989;DHT22;6054;50.966;7.094;2023-04-25T12:11:46;19.00;30.50
11989;DHT22;6054;50.966;7.094;2023-04-25T12:14:20;19.10;30.50
11989;DHT22;6054;50.966;7.094;2023-04-25T12:16:48;19.20;30.00
11989;DHT22;6054;50.966;7.094;2023-04-25T12:19:17;19.40;29.90
11989;DHT22;6054;50.966;7.094;2023-04-25T12:21:44;19.50;29.30
11989;DHT22;6054;50.966;7.094;2023-04-25T12:24:13;19.60;28.50
11989;DHT22;6054;50.966;7.094;2023-04-25T12:26:48;19.60;28.90
11989;DHT22;6054;50.966;7.094;2023-04-25T12:29:17;19.90;29.00
11989;DHT22;6054;50.966;7.094;2023-04-25T12:31:44;19.80;29.20
11989;DHT22;6054;50.966;7.094;2023-04-25T12:34:11;20.00;29.20
11989;DHT22;6054;50.966;7.094;2023-04-25T12:36:38;20.10;28.70
11989;DHT22;6054;50.966;7.094;2023-04-25T12:39:05;20.20;27.50
11989;DHT22;6054;50.966;7.094;2023-04-25T12:41:32;20.20;27.20
11989;DHT22;6054;50.966;7.094;2023-04-25T12:44:00;20.10;27.30
11989;DHT22;6054;50.966;7.094;2023-04-25T12:46:27;20.00;27.10
11989;DHT22;6054;50.966;7.094;2023-04-25T12:48:54;20.00;27.30
11989;DHT22;6054;50.966;7.094;2023-04-25T12:51:21;20.00;27.80
11989;DHT22;6054;50.966;7.094;2023-04-25T12:53:50;19.80;27.80
11989;DHT22;6054;50.966;7.094;2023-04-25T12:56:17;19.80;28.00
11989;DHT22;6054;50.966;7.094;2023-04-25T12:58:44;19.70;28.40
11989;DHT22;6054;50.966;7.094;2023-04-25T13:01:12;19.60;28.30
11989;DHT22;6054;50.966;7.094;2023-04-25T13:03:39;19.50;28.20
11989;DHT22;6054;50.966;7.094;2023-04-25T13:06:06;19.40;28.50
11989;DHT22;6054;50.966;7.094;2023-04-25T13:08:33;19.30;29.10
11989;DHT22;6054;50.966;7.094;2023-04-25T13:11:00;19.20;29.00
11989;DHT22;6054;50.966;7.094;2023-04-25T13:13:27;19.10;29.10
11989;DHT22;6054;50.966;7.094;2023-04-25T13:15:54;19.10;28.90
11989;DHT22;6054;50.966;7.094;2023-04-25T13:18:22;18.90;29.40
11989;DHT22;6054;50.966;7.094;2023-04-25T13:20:51;19.20;28.90
11989;DHT22;6054;50.966;7.094;2023-04-25T13:23:18;18.90;29.00
11989;DHT22;6054;50.966;7.094;2023-04-25T13:25:45;18.80;28.80
11989;DHT22;6054;50.966;7.094;2023-04-25T13:28:12;18.90;29.20
11989;DHT22;6054;50.966;7.094;2023-04-25T13:30:39;19.00;29.00
11989;DHT22;6054;50.966;7.094;2023-04-25T13:33:06;19.10;28.80
11989;DHT22;6054;50.966;7.094;2023-04-25T13:35:35;19.50;28.20
11989;DHT22;6054;50.966;7.094;2023-04-25T13:38:02;19.50;29.90
11989;DHT22;6054;50.966;7.094;2023-04-25T13:40:29;19.80;29.70
11989;DHT22;6054;50.966;7.094;2023-04-25T13:42:57;19.90;29.90
11989;DHT22;6054;50.966;7.094;2023-04-25T13:45:24;20.10;31.40
11989;DHT22;6054;50.966;7.094;2023-04-25T13:47:51;20.30;30.90
11989;DHT22;6054;50.966;7.094;2023-04-25T13:50:18;20.50;32.10
11989;DHT22;6054;50.966;7.094;2023-04-25T13:52:47;20.70;32.40
11989;DHT22;6054;50.966;7.094;2023-04-25T13:55:13;20.90;32.50
11989;DHT22;6054;50.966;7.094;2023-04-25T13:57:41;21.00;32.20
11989;DHT22;6054;50.966;7.094;2023-04-25T14:00:09;21.10;32.50
11989;DHT22;6054;50.966;7.094;2023-04-25T14:02:36;21.10;32.10
11989;DHT22;6054;50.966;7.094;2023-04-25T14:05:03;21.00;31.80
11989;DHT22;6054;50.966;7.094;2023-04-25T14:07:31;21.10;32.40
11989;DHT22;6054;50.966;7.094;2023-04-25T14:09:59;21.20;32.10
11989;DHT22;6054;50.966;7.094;2023-04-25T14:12:26;21.30;31.90
11989;DHT22;6054;50.966;7.094;2023-04-25T14:14:52;21.50;31.80
11989;DHT22;6054;50.966;7.094;2023-04-25T14:17:19;21.60;30.40
11989;DHT22;6054;50.966;7.094;2023-04-25T14:19:46;21.70;30.00
11989;DHT22;6054;50.966;7.094;2023-04-25T14:22:13;21.80;29.90
11989;DHT22;6054;50.966;7.094;2023-04-25T14:24:41;21.90;29.60
11989;DHT22;6054;50.966;7.094;2023-04-25T14:27:09;21.80;28.20
11989;DHT22;6054;50.966;7.094;2023-04-25T14:29:36;21.70;28.60
11989;DHT22;6054;50.966;7.094;2023-04-25T14:32:02;21.40;28.70
11989;DHT22;6054;50.966;7.094;2023-04-25T14:34:30;21.30;28.50
11989;DHT22;6054;50.966;7.094;2023-04-25T14:36:57;21.10;29.00
11989;DHT22;6054;50.966;7.094;2023-04-25T14:39:24;20.90;28.70
11989;DHT22;6054;50.966;7.094;2023-04-25T14:41:50;20.90;28.20
11989;DHT22;6054;50.966;7.094;2023-04-25T14:44:19;20.80;28.40
11989;DHT22;6054;50.966;7.094;2023-04-25T14:46:46;21.00;29.20
11989;DHT22;6054;50.966;7.094;2023-04-25T14:49:13;21.20;29.00
11989;DHT22;6054;50.966;7.094;2023-04-25T14:51:40;21.50;29.50
11989;DHT22;6054;50.966;7.094;2023-04-25T14:54:07;21.80;29.10
11989;DHT22;6054;50.966;7.094;2023-04-25T14:56:34;22.00;28.70
11989;DHT22;6054;50.966;7.094;2023-04-25T14:59:00;22.10;28.30
11989;DHT22;6054;50.966;7.094;2023-04-25T15:01:28;22.10;27.40
11989;DHT22;6054;50.966;7.094;2023-04-25T15:03:55;22.00;27.40
11989;DHT22;6054;50.966;7.094;2023-04-25T15:06:22;22.10;26.30
11989;DHT22;6054;50.966;7.094;2023-04-25T15:08:51;22.20;26.20
11989;DHT22;6054;50.966;7.094;2023-04-25T15:11:18;21.70;26.00
11989;DHT22;6054;50.966;7.094;2023-04-25T15:13:45;21.60;26.50
11989;DHT22;6054;50.966;7.094;2023-04-25T15:16:12;21.70;27.00
11989;DHT22;6054;50.966;7.094;2023-04-25T15:18:40;21.80;27.30
11989;DHT22;6054;50.966;7.094;2023-04-25T15:21:07;22.00;27.50
11989;DHT22;6054;50.966;7.094;2023-04-25T15:23:33;22.20;26.90
11989;DHT22;6054;50.966;7.094;2023-04-25T15:26:00;22.10;26.90
11989;DHT22;6054;50.966;7.094;2023-04-25T15:28:27;22.20;27.30
11989;DHT22;6054;50.966;7.094;2023-04-25T15:30:54;22.30;27.50
11989;DHT22;6054;50.966;7.094;2023-04-25T15:33:20;22.50;28.30
11989;DHT22;6054;50.966;7.094;2023-04-25T15:35:49;22.60;28.60
11989;DHT22;6054;50.966;7.094;2023-04-25T15:38:15;22.90;28.40
11989;DHT22;6054;50.966;7.094;2023-04-25T15:40:42;23.10;27.40
11989;DHT22;6054;50.966;7.094;2023-04-25T15:43:09;23.30;27.90
11989;DHT22;6054;50.966;7.094;2023-04-25T15:48:06;23.40;28.40
11989;DHT22;6054;50.966;7.094;2023-04-25T15:50:33;23.40;28.10
11989;DHT22;6054;50.966;7.094;2023-04-25T15:53:03;23.30;28.20
11989;DHT22;6054;50.966;7.094;2023-04-25T15:55:30;23.10;27.90
11989;DHT22;6054;50.966;7.094;2023-04-25T15:57:57;23.00;28.10
11989;DHT22;6054;50.966;7.094;2023-04-25T16:00:23;22.80;28.20
11989;DHT22;6054;50.966;7.094;2023-04-25T16:02:50;22.60;28.40
11989;DHT22;6054;50.966;7.094;2023-04-25T16:05:17;22.40;29.00